Decoded Metar for LCLK (LARNACA in CYPRUS) (IATA:LCA) | Meteo·Mobile Aviation Weather
aviador You're here:

LCLK Decoded Metar

LARNACA in CYPRUS
Report Time2019-03-23 08:00:00
UTC Time2019-03-23 08:15:41
Flight Rules vfr VFR
Wind080° at 05 kt
W.Decomp.*RWY 04: 4.0 kt HW 2.9 kt RCW
W.Rank080° ranks 35
Current wind is below 080° avg. (6.1)
Visibility9999 m
Phenomena:N/A
Clouds:N/A
Expected CloudBase > 7,200 ft AGL from Temp-Dew spread
CeilingNone
Temp22°C (ISA +7)
Dew Point04°C (31% RH)
AAT18.9°C
QNH1014 hPa
Density Alt906 ft
Elevation7 ft
Report Wrong Elevation
Raw Report
LCLK 230800Z 08005KT CAVOK 22/04 Q1014 NOSIG=

Extra information for LCLK:More info

Metar Taf Metar & Taf Last 4 Metars F.Rules Stats Wind Profile Meteogram Temp Stats Airport Information Weather charts Add Link Nearby VenuesMetar ALERT Operation Metar Decoded Social comments